• Join FlightAware (Why Join?)
  • Login
  • US Flag 
02:18PM EDT


 

Airport Tracker/Info


-or-


 

Live Flight TrackerFlight Track Log ✈ EJA727 ✈ 03-Jul-2013 ✈ KHOU - MYAM / MHH

Flight Track Log - Related Links

Times and Time Zones

All times are in EDT time to prevent confusion due to time zone crossing. See the EJA727 flight status page for this flight to view local times or setup timezone preferences in your user account.

Time Position Orientation Groundspeed Altitude Reporting Facility
EDT Latitude Longitude Course Direction KTS MPH feet Rate Location/Type
09:18AM 29.6356 -95.2675 136° Southeast 167 192 600  Level Houston Center
09:20AM 29.5661 -95.1906 136° Southeast 269 310 5,900 3,420 Climbing Houston Center
09:21AM 29.5894 -95.1119 71° East 300 345 9,100 3,240 Climbing Houston Center
09:22AM 29.6086 -95.0089 78° East 306 352 12,600 2,640 Climbing Houston Center
09:23AM 29.6289 -94.8917 79° East 370 426 14,900 2,400 Climbing Houston Center
09:24AM 29.6497 -94.7672 79° East 393 452 17,600 2,340 Climbing Houston Center
09:25AM 29.6722 -94.6350 79° East 419 482 19,700 2,340 Climbing Houston Center
09:26AM 29.7000 -94.4700 79° East 438 504 22,400 2,220 Climbing Houston Center
09:27AM 29.7206 -94.3258 81° East 455 524 24,400 1,740 Climbing Houston Center
09:28AM 29.7019 -94.1742 98° East 477 549 26,000 1,560 Climbing Houston Center
09:29AM 29.6872 -94.0028 96° East 500 575 27,600 1,500 Climbing Houston Center
09:30AM 29.6853 -93.8419 91° East 506 582 29,100 1,440 Climbing Houston Center
09:31AM 29.6831 -93.6836 91° East 501 577 30,600 1,320 Climbing Houston Center
09:32AM 29.6817 -93.5225 91° East 505 581 31,900 1,080 Climbing Houston Center
09:33AM 29.6792 -93.3625 91° East 506 582 32,900 960 Climbing Houston Center
09:34AM 29.6767 -93.2014 91° East 507 583 33,900 1,020 Climbing Houston Center
09:35AM 29.6519 -93.0117 98° East 502 578 35,100 1,020 Climbing Houston Center
09:36AM 29.6247 -92.8553 101° East 502 578 36,100 960 Climbing Houston Center
09:37AM 29.5956 -92.7011 102° East 497 572 37,100 960 Climbing Houston Center
09:38AM 29.5658 -92.5461 102° East 498 573 38,100 900 Climbing Houston Center
09:39AM 29.5367 -92.3939 102° East 493 567 39,000 420 Climbing Houston Center
09:40AM 29.5069 -92.2408 103° East 492 566 39,000  Level Houston Center
09:41AM 29.4772 -92.0861 102° East 496 571 39,000  Level Houston Center
09:42AM 29.4417 -91.9028 103° East 493 567 39,000  Level Houston Center
09:44AM 29.4117 -91.7508 103° East 492 566 39,000  Level Houston Center
09:45AM 29.3842 -91.6072 102° East 491 565 39,000  Level Houston Center
09:46AM 29.3539 -91.4544 103° East 493 567 39,000  Level Houston Center
09:47AM 29.3242 -91.3028 103° East 490 564 39,000  Level Houston Center
09:48AM 29.2875 -91.1203 103° East 491 565 39,000  Level Houston Center
09:49AM 29.2567 -90.9681 103° East 492 566 39,000  Level Houston Center
09:50AM 29.2253 -90.8158 103° East 494 568 39,100 240 Climbing Houston Center
09:51AM 29.1939 -90.6639 103° East 494 568 39,600 480 Climbing Houston Center
09:52AM 29.1633 -90.5139 103° East 489 563 40,100 480 Climbing Houston Center
09:53AM 29.1325 -90.3639 103° East 487 560 40,600 420 Climbing Houston Center
09:54AM 29.0936 -90.1842 104° East 487 560 41,000 120 Climbing Houston Center
09:55AM 29.0625 -90.0350 103° East 485 558 40,900  Descending Houston Center
09:56AM 29.0211 -89.8900 108° East 483 556 41,000  Climbing Houston Center
09:57AM 28.9719 -89.7506 112° Southeast 476 548 41,000  Level Houston Center
09:58AM 28.9219 -89.6147 113° Southeast 469 540 41,000  Level Houston Center
09:59AM 28.8886 -89.4717 105° East 476 548 41,000  Level Houston Center
10:00AM 28.8553 -89.2956 102° East 474 545 41,000  Level Houston Center
10:01AM 28.8258 -89.1472 103° East 478 550 41,000  Level Houston Center
10:02AM 28.7964 -89.0000 103° East 478 550 41,000  Level Houston Center
10:04AM 28.7934 -88.7939 104° East  Level FlightAware Approximate
10:04AM 28.7383 -88.7078 104° East 472 543 41,000  Level Houston Center
10:05AM 28.7081 -88.5636 103° East 470 541 41,000  Level Houston Center
10:06AM 28.6731 -88.3897 103° East 472 543 41,000  Level Houston Center
10:07AM 28.6428 -88.2428 103° East 475 547 41,000  Level Houston Center
10:08AM 28.6125 -88.0989 103° East 471 542 41,000  Level Houston Center
10:09AM 28.5800 -87.9406 103° East 474 545 41,000  Level Houston Center
10:10AM 28.5494 -87.7944 103° East 475 547 41,000  Level Houston Center
10:11AM 28.5192 -87.6492 103° East 475 547 41,000  Level Houston Center
10:12AM 28.4875 -87.5019 104° East 480 552 41,000 -60 Level Houston Center
10:13AM 28.4569 -87.3564 103° East 476 548 40,900  Descending Houston Center
10:14AM 28.4250 -87.2089 104° East 480 552 41,000  Climbing Houston Center
10:15AM 28.3872 -87.0311 104° East 482 555 41,000  Level Houston Center
10:17AM 28.3531 -86.8831 105° East 479 551 41,000  Level Jacksonville Center
10:18AM 28.3219 -86.7358 103° East 478 550 41,000  Level Jacksonville Center
10:19AM 28.2822 -86.5953 108° East 473 544 41,000  Level Jacksonville Center
10:20AM 28.2406 -86.4525 108° East 473 544 41,000  Level Jacksonville Center
10:21AM 28.1967 -86.3025 108° East 478 550 41,000  Level Jacksonville Center
10:22AM 28.1564 -86.1669 109° East 478 550 41,000  Level Jacksonville Center
10:23AM 28.1119 -86.0197 109° East 478 550 41,000  Level Jacksonville Center
10:24AM 28.0694 -85.8772 109° East 472 543 41,000  Level Jacksonville Center
10:25AM 28.0267 -85.7350 109° East 472 543 41,000 -60 Level Jacksonville Center
10:27AM 27.9286 -85.4161 109° East 472 543 40,900  Descending Miami Center
10:28AM 27.8892 -85.2747 107° East 477 549 41,000  Climbing Miami Center
10:29AM 27.8583 -85.1250 103° East 477 549 41,000  Level Miami Center
10:30AM 27.8333 -84.9800 101° East 477 549 41,000  Level Miami Center
10:31AM 27.8081 -84.8353 101° East 477 549 41,000  Level Miami Center
10:32AM 27.7828 -84.6883 101° East 477 549 41,000  Level Miami Center
10:33AM 27.7594 -84.5414 100° East 477 549 41,000  Level Miami Center
10:34AM 27.7336 -84.3967 101° East 472 543 41,000  Level Miami Center
10:35AM 27.7122 -84.2500 99° East 472 543 41,000  Level Miami Center
10:36AM 27.6822 -84.1006 103° East 472 543 41,000  Level Miami Center
10:37AM 27.6583 -83.9492 100° East 477 549 41,000  Level Miami Center
10:38AM 27.6283 -83.7975 103° East 483 556 41,000  Level Miami Center
10:39AM 27.6000 -83.6483 102° East 490 564 41,000  Level Miami Center
10:40AM 27.5675 -83.4944 103° East 490 564 41,000  Level Miami Center
10:41AM 27.5389 -83.3428 102° East 490 564 41,000  Level Miami Center
10:42AM 27.5122 -83.1917 101° East 490 564 41,000  Level Miami Center
10:43AM 27.4814 -83.0403 103° East 490 564 41,000  Level Miami Center
10:44AM 27.4542 -82.8914 102° East 495 570 41,000  Level Miami Center
10:45AM 27.4194 -82.7214 103° East 495 570 41,000  Level Miami Center
10:46AM 27.3881 -82.5725 103° East 495 570 41,000  Level Miami Center
10:47AM 27.3564 -82.4214 103° East 490 564 41,000  Level Miami Center
10:48AM 27.3322 -82.2847 101° East 497 572 41,000  Level Miami Center
10:49AM 27.2967 -82.1172 103° East 497 572 41,000  Level Miami Center
10:50AM 27.2667 -81.9686 103° East 491 565 41,000  Level Miami Center
10:51AM 27.2361 -81.8203 103° East 491 565 41,000  Level Miami Center
10:52AM 27.2075 -81.6836 103° East 496 571 41,000  Level Miami Center
10:53AM 27.1769 -81.5353 103° East 496 571 41,000  Level Miami Center
10:54AM 27.1461 -81.3872 103° East 491 565 41,000  Level Miami Center
10:55AM 27.1117 -81.2200 103° East 496 571 41,000  Level Miami Center
10:56AM 27.0783 -81.0697 104° East 496 571 41,000  Level Miami Center
10:57AM 27.0469 -80.9239 104° East 490 564 41,000  Level Miami Center
10:58AM 27.0158 -80.7736 103° East 485 558 41,000  Level Miami Center
10:59AM 26.9842 -80.6281 104° East 485 558 41,000  Level Miami Center
11:00AM 26.9522 -80.4803 104° East 485 558 41,000  Level Miami Center
11:01AM 26.9183 -80.3303 104° East 491 565 41,000  Level Miami Center
11:02AM 26.8864 -80.1825 104° East 491 565 41,000  Level Miami Center
11:03AM 26.8564 -80.0328 103° East 496 571 41,000  Level Miami Center
11:04AM 26.8239 -79.8853 104° East 490 564 41,000  Level Miami Center
11:05AM 26.7914 -79.7400 104° East 490 564 41,000 -300 Level Miami Center
11:06AM 26.7567 -79.5903 105° East 490 564 40,400 -1,500 Descending Miami Center
11:07AM 26.7239 -79.4453 104° East 490 564 38,100 -2,100 Descending Miami Center
11:08AM 26.7008 -79.3308 103° East 479 551 36,300 -2,340 Descending Miami Center
11:09AM 26.6678 -79.1767 103° East 467 537 33,500 -2,700 Descending Miami Center
11:10AM 26.6469 -79.0344 99° East 462 532 30,900 -2,340 Descending Miami Center
11:11AM 26.6364 -78.8950 95° East 462 532 28,900 -1,560 Descending Miami Center
11:12AM 26.6258 -78.7553 95° East 449 517 27,800 -1,200 Descending Miami Center
11:13AM 26.6131 -78.6017 95° East 454 522 26,500 -1,260 Descending Miami Center
11:14AM 26.6061 -78.4761 94° East 449 517 25,300 -1,140 Descending Miami Center
11:15AM 26.5994 -78.3342 93° East 450 518 24,300 -1,500 Descending Miami Center
11:16AM 26.5903 -78.1947 94° East 450 518 22,400 -2,280 Descending Miami Center
11:17AM 26.5831 -78.0600 93° East 437 503 19,800 -2,760 Descending Miami Center
11:18AM 26.5714 -77.9553 97° East 395 455 16,900 -3,060 Descending Miami Center
11:19AM 26.5636 -77.8436 94° East 367 422 13,700 -3,000 Descending Miami Center
11:20AM 26.5561 -77.7461 95° East 343 395 10,900 -2,400 Descending Miami Center
11:21AM 26.5522 -77.6556 93° East 313 360 9,000 -1,800 Descending Miami Center
11:22AM 26.5464 -77.5717 94° East 280 322 7,400 -1,020 Descending Miami Center
11:23AM 26.5386 -77.4672 95° East 280 322 7,000 -420 Descending Miami Center